KHMN/HMN METAR and TAF weather

Enter ICAO airport designator
Station Type Date Time Source
KHMN METAR 2021/05/17 22:28 UTC NOAA

KHMN 172228Z AUTO 18014G23KT 10SM CLR 28/M11 A2984 RMK AO2 WSHFT 24 SLP037 $


Station Type Date Time Source
KHMN Decoded METAR 2021/05/17 22:28 UTC NOAA

Holloman Air Force Base, NM, United States (KHMN) 32-51N 106-06W 1248M
May 17, 2021 - 06:28 PM EDT / 2021.05.17 2228 UTC
Wind: from the S (180 degrees) at 16 MPH (14 KT) gusting to 26 MPH (23 KT):0
Visibility: 10 mile(s):0
Sky conditions: clear
Temperature: 82 F (28 C)
Dew Point: 12 F (-11 C)
Relative Humidity: 6%
Pressure (altimeter): 29.84 in. Hg (1010 hPa)
ob: KHMN 172228Z AUTO 18014G23KT 10SM CLR 28/M11 A2984 RMK AO2 WSHFT 24 SLP037
cycle: 22

Station Type Date Time Source
KHMN TAF 2021/05/15 14:09 UTC NOAA

TAF
AMD KHMN 151405Z 1514/1615 VRB06KT 9999 BKN120 QNH3000INS
BECMG 1515/1516 19012G18KT 9999 SCT120 QNH2999INS
BECMG 1517/1518 20015G25KT 9999 SCT120 QNH2981INS TS OMTNS
TEMPO 1518/1520 VRB15G25KT VCTS BKN080CB
TEMPO 1520/1603 VRB25G35KT 9000 -TSRA BKN080CB
BECMG 1604/1605 21010G15KT 9999 SCT140 QNH2988INS
BECMG 1606/1607 VRB06KT 9999 FEW160 QNH2989INS TX32/1522Z TN20/1514Z LAST NO
AMDS AFT 1514 NEXT 1809

Example: see airport list